sensor_id;sensor_type;location;lat;lon;timestamp;pressure;altitude;pressure_sealevel;temperature
48894;BMP280;34710;35.798;139.446;2023-03-01T00:02:19;101181.22;;;13.35
48894;BMP280;34710;35.798;139.446;2023-03-01T00:04:44;101176.14;;;13.57
48894;BMP280;34710;35.798;139.446;2023-03-01T00:07:10;101171.74;;;13.42
48894;BMP280;34710;35.798;139.446;2023-03-01T00:09:37;101167.78;;;13.70
48894;BMP280;34710;35.798;139.446;2023-03-01T00:12:01;101175.48;;;13.76
48894;BMP280;34710;35.798;139.446;2023-03-01T00:14:27;101172.60;;;14.25
48894;BMP280;34710;35.798;139.446;2023-03-01T00:16:52;101169.31;;;14.69
48894;BMP280;34710;35.798;139.446;2023-03-01T00:19:19;101162.48;;;14.79
48894;BMP280;34710;35.798;139.446;2023-03-01T00:21:43;101162.63;;;14.96
48894;BMP280;34710;35.798;139.446;2023-03-01T00:24:09;101160.57;;;14.83
48894;BMP280;34710;35.798;139.446;2023-03-01T00:26:33;101152.51;;;15.56
48894;BMP280;34710;35.798;139.446;2023-03-01T00:28:59;101147.37;;;15.65
48894;BMP280;34710;35.798;139.446;2023-03-01T00:31:26;101143.56;;;15.72
48894;BMP280;34710;35.798;139.446;2023-03-01T00:33:53;101131.10;;;15.98
48894;BMP280;34710;35.798;139.446;2023-03-01T00:36:16;101133.56;;;16.36
48894;BMP280;34710;35.798;139.446;2023-03-01T00:38:42;101135.12;;;16.96
48894;BMP280;34710;35.798;139.446;2023-03-01T00:41:07;101128.45;;;16.83
48894;BMP280;34710;35.798;139.446;2023-03-01T00:43:31;101119.46;;;17.19
48894;BMP280;34710;35.798;139.446;2023-03-01T00:45:59;101116.59;;;17.05
48894;BMP280;34710;35.798;139.446;2023-03-01T00:48:21;101123.13;;;16.82
48894;BMP280;34710;35.798;139.446;2023-03-01T00:50:47;101122.09;;;16.35
48894;BMP280;34710;35.798;139.446;2023-03-01T00:53:12;101116.63;;;15.97
48894;BMP280;34710;35.798;139.446;2023-03-01T00:55:37;101113.59;;;15.95
48894;BMP280;34710;35.798;139.446;2023-03-01T00:58:04;101110.04;;;15.98
48894;BMP280;34710;35.798;139.446;2023-03-01T01:00:29;101113.68;;;16.15
48894;BMP280;34710;35.798;139.446;2023-03-01T01:02:54;101117.51;;;15.93
48894;BMP280;34710;35.798;139.446;2023-03-01T01:05:20;101117.04;;;15.69
48894;BMP280;34710;35.798;139.446;2023-03-01T01:07:45;101113.05;;;15.88
48894;BMP280;34710;35.798;139.446;2023-03-01T01:10:11;101115.80;;;15.71
48894;BMP280;34710;35.798;139.446;2023-03-01T01:12:35;101116.16;;;16.24
48894;BMP280;34710;35.798;139.446;2023-03-01T01:15:01;101115.51;;;16.56
48894;BMP280;34710;35.798;139.446;2023-03-01T01:17:26;101111.75;;;15.00
48894;BMP280;34710;35.798;139.446;2023-03-01T01:19:51;101108.63;;;14.09
48894;BMP280;34710;35.798;139.446;2023-03-01T01:22:18;101105.31;;;15.03
48894;BMP280;34710;35.798;139.446;2023-03-01T01:24:43;101103.33;;;15.20
48894;BMP280;34710;35.798;139.446;2023-03-01T01:27:09;101103.67;;;15.25
48894;BMP280;34710;35.798;139.446;2023-03-01T01:29:34;101103.30;;;14.38
48894;BMP280;34710;35.798;139.446;2023-03-01T01:31:59;101098.57;;;14.53
48894;BMP280;34710;35.798;139.446;2023-03-01T01:34:24;101095.55;;;14.62
48894;BMP280;34710;35.798;139.446;2023-03-01T01:36:51;101087.60;;;14.97
48894;BMP280;34710;35.798;139.446;2023-03-01T01:39:15;101084.60;;;15.85
48894;BMP280;34710;35.798;139.446;2023-03-01T01:41:41;101082.60;;;15.32
48894;BMP280;34710;35.798;139.446;2023-03-01T01:44:15;101077.32;;;15.56
48894;BMP280;34710;35.798;139.446;2023-03-01T01:46:32;101079.02;;;15.15
48894;BMP280;34710;35.798;139.446;2023-03-01T01:48:59;101076.34;;;15.40
48894;BMP280;34710;35.798;139.446;2023-03-01T01:51:27;101066.23;;;14.83
48894;BMP280;34710;35.798;139.446;2023-03-01T01:53:53;101061.13;;;15.47
48894;BMP280;34710;35.798;139.446;2023-03-01T01:56:14;101058.48;;;15.23
48894;BMP280;34710;35.798;139.446;2023-03-01T01:58:39;101056.28;;;14.81
48894;BMP280;34710;35.798;139.446;2023-03-01T02:01:04;101058.38;;;15.09
48894;BMP280;34710;35.798;139.446;2023-03-01T02:03:32;101049.09;;;15.80
48894;BMP280;34710;35.798;139.446;2023-03-01T02:05:58;101045.55;;;16.08
48894;BMP280;34710;35.798;139.446;2023-03-01T02:08:22;101035.63;;;16.25
48894;BMP280;34710;35.798;139.446;2023-03-01T02:10:46;101022.39;;;16.88
48894;BMP280;34710;35.798;139.446;2023-03-01T02:13:12;101013.05;;;16.74
48894;BMP280;34710;35.798;139.446;2023-03-01T02:15:38;101010.52;;;17.14
48894;BMP280;34710;35.798;139.446;2023-03-01T02:18:02;101006.87;;;16.96
48894;BMP280;34710;35.798;139.446;2023-03-01T02:20:33;100998.88;;;16.98
48894;BMP280;34710;35.798;139.446;2023-03-01T02:22:53;100993.49;;;17.25
48894;BMP280;34710;35.798;139.446;2023-03-01T02:25:31;100990.34;;;17.09
48894;BMP280;34710;35.798;139.446;2023-03-01T02:27:49;100991.01;;;16.95
48894;BMP280;34710;35.798;139.446;2023-03-01T02:30:09;100989.13;;;17.83
48894;BMP280;34710;35.798;139.446;2023-03-01T02:32:34;100982.53;;;18.24
48894;BMP280;34710;35.798;139.446;2023-03-01T02:35:00;100980.18;;;18.49
48894;BMP280;34710;35.798;139.446;2023-03-01T02:37:26;100975.40;;;18.23
48894;BMP280;34710;35.798;139.446;2023-03-01T02:39:53;100964.97;;;18.52
48894;BMP280;34710;35.798;139.446;2023-03-01T02:42:21;100956.12;;;18.92
48894;BMP280;34710;35.798;139.446;2023-03-01T02:44:41;100953.17;;;18.90
48894;BMP280;34710;35.798;139.446;2023-03-01T02:47:06;100951.86;;;19.25
48894;BMP280;34710;35.798;139.446;2023-03-01T02:49:34;100950.93;;;19.60
48894;BMP280;34710;35.798;139.446;2023-03-01T02:52:14;100943.29;;;19.54
48894;BMP280;34710;35.798;139.446;2023-03-01T02:54:26;100937.57;;;19.18
48894;BMP280;34710;35.798;139.446;2023-03-01T02:56:48;100934.00;;;19.36
48894;BMP280;34710;35.798;139.446;2023-03-01T02:59:13;100928.27;;;19.32
48894;BMP280;34710;35.798;139.446;2023-03-01T03:01:39;100922.32;;;18.80
48894;BMP280;34710;35.798;139.446;2023-03-01T03:04:06;100917.15;;;18.69
48894;BMP280;34710;35.798;139.446;2023-03-01T03:06:30;100914.36;;;19.11
48894;BMP280;34710;35.798;139.446;2023-03-01T03:08:55;100906.78;;;18.00
48894;BMP280;34710;35.798;139.446;2023-03-01T03:11:20;100900.67;;;17.73
48894;BMP280;34710;35.798;139.446;2023-03-01T03:13:46;100894.78;;;18.37
48894;BMP280;34710;35.798;139.446;2023-03-01T03:16:11;100888.76;;;19.19
48894;BMP280;34710;35.798;139.446;2023-03-01T03:18:36;100881.87;;;19.30
48894;BMP280;34710;35.798;139.446;2023-03-01T03:21:01;100869.68;;;20.59
48894;BMP280;34710;35.798;139.446;2023-03-01T03:23:27;100863.12;;;20.51
48894;BMP280;34710;35.798;139.446;2023-03-01T03:25:53;100857.68;;;21.35
48894;BMP280;34710;35.798;139.446;2023-03-01T03:28:19;100852.38;;;21.25
48894;BMP280;34710;35.798;139.446;2023-03-01T03:30:43;100850.38;;;20.89
48894;BMP280;34710;35.798;139.446;2023-03-01T03:33:09;100844.57;;;20.78
48894;BMP280;34710;35.798;139.446;2023-03-01T03:35:38;100838.35;;;20.25
48894;BMP280;34710;35.798;139.446;2023-03-01T03:38:00;100832.48;;;20.15
48894;BMP280;34710;35.798;139.446;2023-03-01T03:40:25;100829.93;;;20.12
48894;BMP280;34710;35.798;139.446;2023-03-01T03:42:50;100828.27;;;20.87
48894;BMP280;34710;35.798;139.446;2023-03-01T03:45:15;100822.95;;;18.69
48894;BMP280;34710;35.798;139.446;2023-03-01T03:47:41;100819.94;;;18.56
48894;BMP280;34710;35.798;139.446;2023-03-01T03:50:07;100810.56;;;18.15
48894;BMP280;34710;35.798;139.446;2023-03-01T03:52:31;100802.50;;;18.76
48894;BMP280;34710;35.798;139.446;2023-03-01T03:54:57;100795.78;;;19.27
48894;BMP280;34710;35.798;139.446;2023-03-01T03:57:22;100782.39;;;19.70
48894;BMP280;34710;35.798;139.446;2023-03-01T03:59:48;100779.03;;;19.73
48894;BMP280;34710;35.798;139.446;2023-03-01T04:02:13;100768.79;;;19.84
48894;BMP280;34710;35.798;139.446;2023-03-01T04:04:38;100762.86;;;20.07
48894;BMP280;34710;35.798;139.446;2023-03-01T04:07:03;100752.92;;;20.21
48894;BMP280;34710;35.798;139.446;2023-03-01T04:09:29;100747.10;;;20.78
48894;BMP280;34710;35.798;139.446;2023-03-01T04:11:55;100739.77;;;21.69
48894;BMP280;34710;35.798;139.446;2023-03-01T04:14:20;100733.50;;;22.38
48894;BMP280;34710;35.798;139.446;2023-03-01T04:16:46;100726.71;;;22.31
48894;BMP280;34710;35.798;139.446;2023-03-01T04:19:11;100723.36;;;22.20
48894;BMP280;34710;35.798;139.446;2023-03-01T04:21:36;100720.25;;;22.39
48894;BMP280;34710;35.798;139.446;2023-03-01T04:24:02;100716.11;;;21.83
48894;BMP280;34710;35.798;139.446;2023-03-01T04:26:27;100712.31;;;22.42
48894;BMP280;34710;35.798;139.446;2023-03-01T04:28:52;100707.96;;;22.51
48894;BMP280;34710;35.798;139.446;2023-03-01T04:31:18;100700.97;;;22.98
48894;BMP280;34710;35.798;139.446;2023-03-01T04:33:44;100698.75;;;23.11
48894;BMP280;34710;35.798;139.446;2023-03-01T04:36:10;100692.58;;;23.50
48894;BMP280;34710;35.798;139.446;2023-03-01T04:38:35;100689.96;;;23.06
48894;BMP280;34710;35.798;139.446;2023-03-01T04:40:59;100689.74;;;22.15
48894;BMP280;34710;35.798;139.446;2023-03-01T04:43:25;100688.45;;;22.29
48894;BMP280;34710;35.798;139.446;2023-03-01T04:45:49;100684.86;;;21.59
48894;BMP280;34710;35.798;139.446;2023-03-01T04:48:15;100683.48;;;20.48
48894;BMP280;34710;35.798;139.446;2023-03-01T04:50:40;100681.83;;;20.51
48894;BMP280;34710;35.798;139.446;2023-03-01T04:53:06;100676.35;;;20.50
48894;BMP280;34710;35.798;139.446;2023-03-01T04:55:31;100677.75;;;20.88
48894;BMP280;34710;35.798;139.446;2023-03-01T04:57:56;100674.34;;;21.13
48894;BMP280;34710;35.798;139.446;2023-03-01T05:00:23;100663.16;;;21.94
48894;BMP280;34710;35.798;139.446;2023-03-01T05:02:49;100651.45;;;21.86
48894;BMP280;34710;35.798;139.446;2023-03-01T05:05:13;100646.58;;;22.89
48894;BMP280;34710;35.798;139.446;2023-03-01T05:07:38;100637.05;;;23.44
48894;BMP280;34710;35.798;139.446;2023-03-01T05:10:04;100630.72;;;23.78
48894;BMP280;34710;35.798;139.446;2023-03-01T05:12:28;100627.46;;;24.09
48894;BMP280;34710;35.798;139.446;2023-03-01T05:14:54;100623.17;;;23.79
48894;BMP280;34710;35.798;139.446;2023-03-01T05:17:19;100619.25;;;24.50
48894;BMP280;34710;35.798;139.446;2023-03-01T05:19:44;100614.14;;;25.34
48894;BMP280;34710;35.798;139.446;2023-03-01T05:22:09;100608.12;;;24.84
48894;BMP280;34710;35.798;139.446;2023-03-01T05:24:36;100603.63;;;23.41
48894;BMP280;34710;35.798;139.446;2023-03-01T05:27:02;100606.56;;;23.52
48894;BMP280;34710;35.798;139.446;2023-03-01T05:29:28;100602.03;;;24.22
48894;BMP280;34710;35.798;139.446;2023-03-01T05:31:52;100595.99;;;23.57
48894;BMP280;34710;35.798;139.446;2023-03-01T05:34:17;100589.31;;;24.10
48894;BMP280;34710;35.798;139.446;2023-03-01T05:36:42;100588.88;;;23.53
48894;BMP280;34710;35.798;139.446;2023-03-01T05:39:07;100587.37;;;22.98
48894;BMP280;34710;35.798;139.446;2023-03-01T05:41:33;100585.40;;;23.77
48894;BMP280;34710;35.798;139.446;2023-03-01T05:43:58;100582.80;;;23.89
48894;BMP280;34710;35.798;139.446;2023-03-01T05:46:23;100575.62;;;24.06
48894;BMP280;34710;35.798;139.446;2023-03-01T05:48:50;100576.12;;;22.99
48894;BMP280;34710;35.798;139.446;2023-03-01T05:51:15;100582.75;;;22.58
48894;BMP280;34710;35.798;139.446;2023-03-01T05:53:40;100583.64;;;22.63
48894;BMP280;34710;35.798;139.446;2023-03-01T05:56:06;100586.30;;;22.31
48894;BMP280;34710;35.798;139.446;2023-03-01T05:58:30;100588.54;;;21.50
48894;BMP280;34710;35.798;139.446;2023-03-01T06:00:56;100587.90;;;21.28
48894;BMP280;34710;35.798;139.446;2023-03-01T06:03:21;100586.83;;;19.90
48894;BMP280;34710;35.798;139.446;2023-03-01T06:05:46;100581.93;;;20.62
48894;BMP280;34710;35.798;139.446;2023-03-01T06:08:13;100581.03;;;21.01
48894;BMP280;34710;35.798;139.446;2023-03-01T06:10:38;100582.68;;;19.23
48894;BMP280;34710;35.798;139.446;2023-03-01T06:13:03;100584.86;;;20.04
48894;BMP280;34710;35.798;139.446;2023-03-01T06:15:28;100588.84;;;20.49
48894;BMP280;34710;35.798;139.446;2023-03-01T06:17:55;100585.31;;;20.33
48894;BMP280;34710;35.798;139.446;2023-03-01T06:20:21;100581.51;;;20.13
48894;BMP280;34710;35.798;139.446;2023-03-01T06:22:45;100583.28;;;19.77
48894;BMP280;34710;35.798;139.446;2023-03-01T06:25:11;100580.21;;;18.78
48894;BMP280;34710;35.798;139.446;2023-03-01T06:27:35;100581.16;;;18.98
48894;BMP280;34710;35.798;139.446;2023-03-01T06:30:01;100575.29;;;19.19
48894;BMP280;34710;35.798;139.446;2023-03-01T06:32:25;100577.85;;;19.35
48894;BMP280;34710;35.798;139.446;2023-03-01T06:34:51;100571.15;;;19.50
48894;BMP280;34710;35.798;139.446;2023-03-01T06:37:17;100568.70;;;19.51
48894;BMP280;34710;35.798;139.446;2023-03-01T06:39:42;100565.94;;;19.68
48894;BMP280;34710;35.798;139.446;2023-03-01T06:42:09;100568.71;;;18.37
48894;BMP280;34710;35.798;139.446;2023-03-01T06:44:33;100570.63;;;18.06
48894;BMP280;34710;35.798;139.446;2023-03-01T06:46:58;100563.82;;;19.32
48894;BMP280;34710;35.798;139.446;2023-03-01T06:49:23;100558.42;;;19.16
48894;BMP280;34710;35.798;139.446;2023-03-01T06:51:48;100555.17;;;18.62
48894;BMP280;34710;35.798;139.446;2023-03-01T06:54:14;100552.99;;;18.53
48894;BMP280;34710;35.798;139.446;2023-03-01T06:56:40;100555.24;;;18.48
48894;BMP280;34710;35.798;139.446;2023-03-01T06:59:05;100561.97;;;18.02
48894;BMP280;34710;35.798;139.446;2023-03-01T07:01:31;100561.08;;;17.37
48894;BMP280;34710;35.798;139.446;2023-03-01T07:03:56;100561.91;;;17.96
48894;BMP280;34710;35.798;139.446;2023-03-01T07:06:22;100561.14;;;17.88
48894;BMP280;34710;35.798;139.446;2023-03-01T07:08:46;100558.26;;;17.22
48894;BMP280;34710;35.798;139.446;2023-03-01T07:11:12;100550.19;;;17.90
48894;BMP280;34710;35.798;139.446;2023-03-01T07:13:37;100557.17;;;17.62
48894;BMP280;34710;35.798;139.446;2023-03-01T07:16:03;100567.35;;;16.85
48894;BMP280;34710;35.798;139.446;2023-03-01T07:18:28;100567.18;;;17.74
48894;BMP280;34710;35.798;139.446;2023-03-01T07:20:53;100563.03;;;17.37
48894;BMP280;34710;35.798;139.446;2023-03-01T07:23:19;100568.26;;;17.61
48894;BMP280;34710;35.798;139.446;2023-03-01T07:25:45;100573.63;;;16.83
48894;BMP280;34710;35.798;139.446;2023-03-01T07:28:10;100570.47;;;17.61
48894;BMP280;34710;35.798;139.446;2023-03-01T07:30:36;100565.72;;;17.67
48894;BMP280;34710;35.798;139.446;2023-03-01T07:33:01;100560.77;;;18.37
48894;BMP280;34710;35.798;139.446;2023-03-01T07:35:27;100560.30;;;17.10
48894;BMP280;34710;35.798;139.446;2023-03-01T07:37:51;100555.66;;;18.24
48894;BMP280;34710;35.798;139.446;2023-03-01T07:40:17;100551.29;;;18.30
48894;BMP280;34710;35.798;139.446;2023-03-01T07:42:42;100547.72;;;18.30
48894;BMP280;34710;35.798;139.446;2023-03-01T07:45:08;100555.64;;;17.11
48894;BMP280;34710;35.798;139.446;2023-03-01T07:47:33;100552.45;;;17.44
48894;BMP280;34710;35.798;139.446;2023-03-01T07:49:59;100547.11;;;17.43
48894;BMP280;34710;35.798;139.446;2023-03-01T07:52:24;100548.21;;;17.90
48894;BMP280;34710;35.798;139.446;2023-03-01T07:54:49;100541.17;;;17.98
48894;BMP280;34710;35.798;139.446;2023-03-01T07:57:14;100537.13;;;17.63
48894;BMP280;34710;35.798;139.446;2023-03-01T07:59:40;100535.84;;;18.02
48894;BMP280;34710;35.798;139.446;2023-03-01T08:02:05;100541.84;;;16.28
48894;BMP280;34710;35.798;139.446;2023-03-01T08:04:31;100543.50;;;16.63
48894;BMP280;34710;35.798;139.446;2023-03-01T08:06:56;100537.14;;;17.27
48894;BMP280;34710;35.798;139.446;2023-03-01T08:09:22;100535.41;;;17.54
48894;BMP280;34710;35.798;139.446;2023-03-01T08:11:46;100535.31;;;17.83
48894;BMP280;34710;35.798;139.446;2023-03-01T08:14:12;100537.55;;;17.72
48894;BMP280;34710;35.798;139.446;2023-03-01T08:16:38;100540.94;;;17.68
48894;BMP280;34710;35.798;139.446;2023-03-01T08:19:05;100533.46;;;17.72
48894;BMP280;34710;35.798;139.446;2023-03-01T08:21:29;100525.88;;;17.84
48894;BMP280;34710;35.798;139.446;2023-03-01T08:23:54;100519.53;;;17.78
48894;BMP280;34710;35.798;139.446;2023-03-01T08:26:20;100514.78;;;18.40
48894;BMP280;34710;35.798;139.446;2023-03-01T08:28:45;100517.11;;;17.89
48894;BMP280;34710;35.798;139.446;2023-03-01T08:31:16;100517.03;;;17.54
48894;BMP280;34710;35.798;139.446;2023-03-01T08:33:35;100518.08;;;17.91
48894;BMP280;34710;35.798;139.446;2023-03-01T08:36:05;100511.20;;;18.19
48894;BMP280;34710;35.798;139.446;2023-03-01T08:38:27;100507.34;;;17.66
48894;BMP280;34710;35.798;139.446;2023-03-01T08:40:52;100509.74;;;17.66
48894;BMP280;34710;35.798;139.446;2023-03-01T08:43:17;100504.63;;;17.55
48894;BMP280;34710;35.798;139.446;2023-03-01T08:45:43;100504.73;;;17.63
48894;BMP280;34710;35.798;139.446;2023-03-01T08:48:08;100498.74;;;18.00
48894;BMP280;34710;35.798;139.446;2023-03-01T08:50:33;100496.31;;;17.49
48894;BMP280;34710;35.798;139.446;2023-03-01T08:52:59;100494.09;;;17.39
48894;BMP280;34710;35.798;139.446;2023-03-01T08:55:24;100498.81;;;17.55
48894;BMP280;34710;35.798;139.446;2023-03-01T08:57:49;100500.84;;;17.49
48894;BMP280;34710;35.798;139.446;2023-03-01T09:00:15;100506.11;;;17.41
48894;BMP280;34710;35.798;139.446;2023-03-01T09:02:40;100504.96;;;17.54
48894;BMP280;34710;35.798;139.446;2023-03-01T09:05:07;100494.41;;;17.54
48894;BMP280;34710;35.798;139.446;2023-03-01T09:07:32;100481.56;;;17.47
48894;BMP280;34710;35.798;139.446;2023-03-01T09:09:57;100487.13;;;17.54
48894;BMP280;34710;35.798;139.446;2023-03-01T09:12:22;100496.28;;;17.13
48894;BMP280;34710;35.798;139.446;2023-03-01T09:14:47;100496.06;;;17.06
48894;BMP280;34710;35.798;139.446;2023-03-01T09:17:12;100491.57;;;17.36
48894;BMP280;34710;35.798;139.446;2023-03-01T09:19:38;100487.70;;;17.25
48894;BMP280;34710;35.798;139.446;2023-03-01T09:22:04;100480.52;;;17.16
48894;BMP280;34710;35.798;139.446;2023-03-01T09:24:28;100470.00;;;17.09
48894;BMP280;34710;35.798;139.446;2023-03-01T09:26:56;100458.07;;;17.04
48894;BMP280;34710;35.798;139.446;2023-03-01T09:29:20;100462.13;;;17.15
48894;BMP280;34710;35.798;139.446;2023-03-01T09:31:45;100470.92;;;17.73
48894;BMP280;34710;35.798;139.446;2023-03-01T09:34:11;100482.55;;;17.10
48894;BMP280;34710;35.798;139.446;2023-03-01T09:36:37;100488.50;;;17.19
48894;BMP280;34710;35.798;139.446;2023-03-01T09:39:02;100498.08;;;17.13
48894;BMP280;34710;35.798;139.446;2023-03-01T09:41:42;100499.16;;;16.80
48894;BMP280;34710;35.798;139.446;2023-03-01T09:43:53;100495.84;;;16.76
48894;BMP280;34710;35.798;139.446;2023-03-01T09:46:17;100493.48;;;16.43
48894;BMP280;34710;35.798;139.446;2023-03-01T09:48:44;100494.28;;;16.80
48894;BMP280;34710;35.798;139.446;2023-03-01T09:51:15;100492.27;;;17.03
48894;BMP280;34710;35.798;139.446;2023-03-01T09:53:34;100487.30;;;16.85
48894;BMP280;34710;35.798;139.446;2023-03-01T09:56:02;100486.12;;;16.73
48894;BMP280;34710;35.798;139.446;2023-03-01T09:58:33;100485.09;;;16.44
48894;BMP280;34710;35.798;139.446;2023-03-01T10:00:51;100491.03;;;16.58
48894;BMP280;34710;35.798;139.446;2023-03-01T10:03:21;100492.71;;;16.45
48894;BMP280;34710;35.798;139.446;2023-03-01T10:05:48;100489.16;;;16.01
48894;BMP280;34710;35.798;139.446;2023-03-01T10:10:35;100485.92;;;16.13
48894;BMP280;34710;35.798;139.446;2023-03-01T10:12:57;100476.75;;;16.12
48894;BMP280;34710;35.798;139.446;2023-03-01T10:15:31;100475.00;;;15.92
48894;BMP280;34710;35.798;139.446;2023-03-01T10:17:52;100475.94;;;16.19
48894;BMP280;34710;35.798;139.446;2023-03-01T10:20:21;100478.85;;;16.03
48894;BMP280;34710;35.798;139.446;2023-03-01T10:22:39;100471.28;;;16.18
48894;BMP280;34710;35.798;139.446;2023-03-01T10:25:04;100466.67;;;15.79
48894;BMP280;34710;35.798;139.446;2023-03-01T10:27:36;100456.54;;;15.54
48894;BMP280;34710;35.798;139.446;2023-03-01T10:29:59;100456.74;;;16.15
48894;BMP280;34710;35.798;139.446;2023-03-01T10:32:20;100464.62;;;15.90
48894;BMP280;34710;35.798;139.446;2023-03-01T10:34:46;100473.64;;;15.00
48894;BMP280;34710;35.798;139.446;2023-03-01T10:37:13;100480.37;;;15.75
48894;BMP280;34710;35.798;139.446;2023-03-01T10:39:37;100475.87;;;14.92
48894;BMP280;34710;35.798;139.446;2023-03-01T10:42:04;100476.88;;;14.69
48894;BMP280;34710;35.798;139.446;2023-03-01T10:44:39;100471.54;;;14.23
48894;BMP280;34710;35.798;139.446;2023-03-01T10:47:00;100475.49;;;14.27
48894;BMP280;34710;35.798;139.446;2023-03-01T10:49:20;100478.20;;;14.03
48894;BMP280;34710;35.798;139.446;2023-03-01T10:51:45;100475.60;;;12.91
48894;BMP280;34710;35.798;139.446;2023-03-01T10:54:17;100472.74;;;13.28
48894;BMP280;34710;35.798;139.446;2023-03-01T10:59:03;100469.95;;;13.75
48894;BMP280;34710;35.798;139.446;2023-03-01T11:01:27;100468.83;;;14.17
48894;BMP280;34710;35.798;139.446;2023-03-01T11:06:21;100465.63;;;14.67
48894;BMP280;34710;35.798;139.446;2023-03-01T11:08:44;100474.22;;;14.28
48894;BMP280;34710;35.798;139.446;2023-03-01T11:11:18;100478.64;;;13.29
48894;BMP280;34710;35.798;139.446;2023-03-01T11:13:33;100481.88;;;13.15
48894;BMP280;34710;35.798;139.446;2023-03-01T11:16:03;100484.69;;;13.32
48894;BMP280;34710;35.798;139.446;2023-03-01T11:18:23;100478.22;;;12.91
48894;BMP280;34710;35.798;139.446;2023-03-01T11:20:51;100477.22;;;13.35
48894;BMP280;34710;35.798;139.446;2023-03-01T11:23:15;100462.07;;;12.87
48894;BMP280;34710;35.798;139.446;2023-03-01T11:25:42;100459.48;;;12.31
48894;BMP280;34710;35.798;139.446;2023-03-01T11:28:07;100461.06;;;12.18
48894;BMP280;34710;35.798;139.446;2023-03-01T11:30:35;100461.49;;;13.10
48894;BMP280;34710;35.798;139.446;2023-03-01T11:33:05;100452.56;;;12.88
48894;BMP280;34710;35.798;139.446;2023-03-01T11:35:25;100446.00;;;12.67
48894;BMP280;34710;35.798;139.446;2023-03-01T11:37:57;100447.33;;;12.67
48894;BMP280;34710;35.798;139.446;2023-03-01T11:40:16;100447.54;;;12.25
48894;BMP280;34710;35.798;139.446;2023-03-01T11:42:48;100449.75;;;12.15
48894;BMP280;34710;35.798;139.446;2023-03-01T11:45:08;100448.88;;;11.78
48894;BMP280;34710;35.798;139.446;2023-03-01T11:47:39;100445.23;;;12.16
48894;BMP280;34710;35.798;139.446;2023-03-01T11:50:05;100445.73;;;12.23
48894;BMP280;34710;35.798;139.446;2023-03-01T11:52:28;100443.78;;;12.43
48894;BMP280;34710;35.798;139.446;2023-03-01T11:54:55;100441.05;;;12.58
48894;BMP280;34710;35.798;139.446;2023-03-01T11:57:18;100437.44;;;12.22
48894;BMP280;34710;35.798;139.446;2023-03-01T12:02:16;100441.24;;;12.07
48894;BMP280;34710;35.798;139.446;2023-03-01T12:06:57;100444.52;;;11.77
48894;BMP280;34710;35.798;139.446;2023-03-01T12:11:53;100453.80;;;12.29
48894;BMP280;34710;35.798;139.446;2023-03-01T12:14:25;100454.18;;;12.45
48894;BMP280;34710;35.798;139.446;2023-03-01T12:16:44;100457.98;;;12.26
48894;BMP280;34710;35.798;139.446;2023-03-01T12:19:13;100460.41;;;12.68
48894;BMP280;34710;35.798;139.446;2023-03-01T12:21:37;100456.26;;;12.25
48894;BMP280;34710;35.798;139.446;2023-03-01T12:24:04;100448.23;;;12.17
48894;BMP280;34710;35.798;139.446;2023-03-01T12:26:22;100450.05;;;12.53
48894;BMP280;34710;35.798;139.446;2023-03-01T12:33:39;100430.92;;;13.25
48894;BMP280;34710;35.798;139.446;2023-03-01T12:36:11;100433.23;;;12.98
48894;BMP280;34710;35.798;139.446;2023-03-01T12:38:33;100434.79;;;12.41
48894;BMP280;34710;35.798;139.446;2023-03-01T12:40:59;100437.98;;;12.22
48894;BMP280;34710;35.798;139.446;2023-03-01T12:43:24;100436.38;;;12.94
48894;BMP280;34710;35.798;139.446;2023-03-01T12:45:48;100426.98;;;13.28
48894;BMP280;34710;35.798;139.446;2023-03-01T12:48:20;100415.33;;;14.04
48894;BMP280;34710;35.798;139.446;2023-03-01T12:50:37;100406.82;;;14.41
48894;BMP280;34710;35.798;139.446;2023-03-01T12:52:57;100413.19;;;14.36
48894;BMP280;34710;35.798;139.446;2023-03-01T12:55:29;100403.78;;;14.24
48894;BMP280;34710;35.798;139.446;2023-03-01T12:57:52;100400.75;;;14.22
48894;BMP280;34710;35.798;139.446;2023-03-01T13:00:21;100404.02;;;13.95
48894;BMP280;34710;35.798;139.446;2023-03-01T13:02:41;100396.60;;;13.98
48894;BMP280;34710;35.798;139.446;2023-03-01T13:07:33;100392.07;;;13.90
48894;BMP280;34710;35.798;139.446;2023-03-01T13:10:02;100384.45;;;13.46
48894;BMP280;34710;35.798;139.446;2023-03-01T13:14:47;100369.25;;;13.47
48894;BMP280;34710;35.798;139.446;2023-03-01T13:19:35;100354.23;;;13.22
48894;BMP280;34710;35.798;139.446;2023-03-01T13:22:01;100344.91;;;13.16
48894;BMP280;34710;35.798;139.446;2023-03-01T13:24:28;100348.36;;;13.14
48894;BMP280;34710;35.798;139.446;2023-03-01T13:29:26;100346.28;;;13.17
48894;BMP280;34710;35.798;139.446;2023-03-01T13:36:46;100329.52;;;12.97
48894;BMP280;34710;35.798;139.446;2023-03-01T13:39:01;100337.71;;;13.12
48894;BMP280;34710;35.798;139.446;2023-03-01T13:43:49;100310.76;;;13.21
48894;BMP280;34710;35.798;139.446;2023-03-01T13:46:20;100303.33;;;13.22
48894;BMP280;34710;35.798;139.446;2023-03-01T13:48:40;100298.34;;;13.25
48894;BMP280;34710;35.798;139.446;2023-03-01T13:51:07;100298.55;;;12.67
48894;BMP280;34710;35.798;139.446;2023-03-01T13:53:35;100290.24;;;13.22
48894;BMP280;34710;35.798;139.446;2023-03-01T13:56:00;100281.82;;;12.96
48894;BMP280;34710;35.798;139.446;2023-03-01T13:58:25;100287.25;;;12.83